Time;durP1;ratioP1;P1;durP2;ratioP2;P2;SDS_P1;SDS_P2;PMS_P1;PMS_P2;Temp;Humidity;BMP_temperature;BMP_pressure;BME280_temperature;BME280_humidity;BME280_pressure;Samples;Min_cycle;Max_cycle;Signal;HPM_P1;HPM_P2
2021/05/05 00:00:01;;;;;;;14.43;5.40;;;5.00;99.90;;;;;;5054210;28;20258;-75
2021/05/05 00:02:28;;;;;;;13.03;5.03;;;4.90;99.90;;;;;;5069301;28;20262;-75
2021/05/05 00:04:54;;;;;;;15.53;5.37;;;4.90;99.90;;;;;;5073488;28;20287;-75
2021/05/05 00:07:20;;;;;;;15.10;4.60;;;4.90;99.90;;;;;;5076823;28;20238;-76
2021/05/05 00:09:47;;;;;;;11.77;3.63;;;4.90;99.90;;;;;;5073574;28;20783;-75
2021/05/05 00:12:13;;;;;;;13.30;3.63;;;4.90;99.90;;;;;;5073508;28;20724;-76
2021/05/05 00:14:40;;;;;;;10.87;4.13;;;4.80;99.90;;;;;;5073907;28;20340;-76
2021/05/05 00:17:07;;;;;;;12.30;3.47;;;4.70;99.90;;;;;;5073789;28;20282;-76
2021/05/05 00:19:33;;;;;;;7.97;3.40;;;4.70;99.90;;;;;;5073543;28;20291;-75
2021/05/05 00:22:00;;;;;;;10.07;3.17;;;4.70;99.90;;;;;;5069087;28;20210;-75
2021/05/05 00:24:26;;;;;;;7.57;2.90;;;4.70;99.90;;;;;;5073481;28;20234;-75
2021/05/05 00:26:52;;;;;;;9.33;3.00;;;4.70;99.90;;;;;;5073873;28;20290;-76
2021/05/05 00:29:19;;;;;;;10.33;3.03;;;4.60;99.90;;;;;;5072877;28;20285;-75
2021/05/05 00:31:46;;;;;;;10.67;2.80;;;4.60;99.90;;;;;;5073435;28;20291;-76
2021/05/05 00:34:12;;;;;;;10.57;2.17;;;4.60;99.90;;;;;;5073471;28;20638;-76
2021/05/05 00:36:39;;;;;;;11.90;3.10;;;4.60;99.90;;;;;;5072961;28;20288;-76
2021/05/05 00:39:05;;;;;;;12.97;3.03;;;4.60;99.90;;;;;;5073085;28;20314;-76
2021/05/05 00:41:32;;;;;;;6.27;1.90;;;4.60;99.90;;;;;;5073564;28;20250;-75
2021/05/05 00:43:59;;;;;;;9.83;2.27;;;4.60;99.90;;;;;;5073138;28;20289;-75
2021/05/05 00:46:25;;;;;;;9.73;2.40;;;4.50;99.90;;;;;;5072933;28;20626;-76
2021/05/05 00:48:52;;;;;;;9.07;2.30;;;4.50;99.90;;;;;;5072393;28;20222;-75
2021/05/05 00:51:19;;;;;;;7.00;2.10;;;4.40;99.90;;;;;;5073487;28;20195;-75
2021/05/05 00:53:45;;;;;;;10.83;3.23;;;4.40;99.90;;;;;;5072474;28;20316;-76
2021/05/05 00:56:12;;;;;;;12.20;3.87;;;4.30;99.90;;;;;;5073380;28;20282;-76
2021/05/05 00:58:38;;;;;;;11.07;3.00;;;4.30;99.90;;;;;;5072780;28;20658;-75
2021/05/05 01:01:05;;;;;;;11.13;2.77;;;4.30;99.90;;;;;;5073055;28;20231;-76
2021/05/05 01:03:32;;;;;;;8.43;2.70;;;4.30;99.90;;;;;;5073194;28;20234;-75
2021/05/05 01:06:00;;;;;;;11.43;2.40;;;4.20;99.90;;;;;;5072733;28;20231;-75
2021/05/05 01:08:27;;;;;;;9.10;2.30;;;4.30;99.90;;;;;;5073222;28;20199;-76
2021/05/05 01:10:53;;;;;;;10.40;2.80;;;4.30;99.90;;;;;;5072815;28;20629;-75
2021/05/05 01:13:20;;;;;;;6.93;2.77;;;4.30;99.90;;;;;;5072930;28;20596;-75
2021/05/05 01:15:47;;;;;;;12.17;2.43;;;4.30;99.90;;;;;;5072506;28;20367;-76
2021/05/05 01:18:13;;;;;;;13.07;2.90;;;4.30;99.90;;;;;;5073075;28;20649;-75
2021/05/05 01:20:41;;;;;;;9.93;2.43;;;4.20;99.90;;;;;;5072598;28;20281;-75
2021/05/05 01:23:08;;;;;;;7.20;2.77;;;4.20;99.90;;;;;;5072220;28;20605;-75
2021/05/05 01:25:35;;;;;;;8.23;2.80;;;4.20;99.90;;;;;;5072695;28;20286;-75
2021/05/05 01:28:02;;;;;;;8.60;2.53;;;4.20;99.90;;;;;;5068347;28;20210;-76
2021/05/05 01:30:29;;;;;;;11.37;2.33;;;4.20;99.90;;;;;;5072502;28;20290;-76
2021/05/05 01:32:55;;;;;;;9.17;2.13;;;4.10;99.90;;;;;;5071945;28;20301;-76
2021/05/05 01:35:24;;;;;;;9.27;2.23;;;4.10;99.90;;;;;;5072422;28;20230;-76
2021/05/05 01:37:51;;;;;;;5.93;2.23;;;4.10;99.90;;;;;;5052310;28;20307;-75
2021/05/05 01:40:23;;;;;;;8.93;2.10;;;4.20;99.90;;;;;;5052295;28;20203;-76
2021/05/05 01:42:49;;;;;;;12.53;1.90;;;4.20;99.90;;;;;;5052501;28;20207;-76
2021/05/05 01:45:16;;;;;;;6.70;2.10;;;4.20;99.90;;;;;;5051930;28;20294;-76
2021/05/05 01:47:42;;;;;;;12.93;2.23;;;4.20;99.90;;;;;;5064000;28;20203;-75
2021/05/05 01:50:10;;;;;;;8.87;1.97;;;4.20;99.90;;;;;;5071638;28;20288;-75
2021/05/05 01:52:37;;;;;;;7.93;2.10;;;4.20;99.90;;;;;;5071744;28;20298;-76
2021/05/05 01:55:06;;;;;;;10.30;2.10;;;4.20;99.90;;;;;;5072070;28;20293;-75
2021/05/05 01:57:38;;;;;;;8.53;2.10;;;4.20;99.90;;;;;;5071484;28;20234;-75
2021/05/05 02:00:10;;;;;;;8.47;2.17;;;4.20;99.90;;;;;;5071685;28;20255;-76
2021/05/05 02:02:37;;;;;;;5.87;1.70;;;4.10;99.90;;;;;;5069419;28;20249;-75
2021/05/05 02:05:04;;;;;;;9.07;1.93;;;4.10;99.90;;;;;;5076394;28;20742;-76
2021/05/05 02:07:31;;;;;;;9.63;2.33;;;4.10;99.90;;;;;;5069332;28;20199;-76
2021/05/05 02:09:58;;;;;;;10.47;2.30;;;4.10;99.90;;;;;;5062741;28;20203;-76
2021/05/05 02:12:24;;;;;;;11.57;2.20;;;4.10;99.90;;;;;;5052929;28;20302;-76
2021/05/05 02:14:52;;;;;;;9.67;2.27;;;4.00;99.90;;;;;;5071696;28;20282;-76
2021/05/05 02:17:18;;;;;;;13.27;2.97;;;4.00;99.90;;;;;;5071535;28;20210;-76
2021/05/05 02:19:45;;;;;;;11.97;3.23;;;4.00;99.90;;;;;;5070816;28;20283;-75
2021/05/05 02:22:12;;;;;;;7.90;3.10;;;4.10;99.90;;;;;;5071723;28;20255;-76
2021/05/05 02:24:38;;;;;;;6.30;2.57;;;4.00;99.90;;;;;;5082530;28;20678;-75
2021/05/05 02:27:06;;;;;;;6.80;2.70;;;3.90;99.90;;;;;;5074595;28;20290;-76
2021/05/05 02:29:32;;;;;;;10.47;2.43;;;3.90;99.90;;;;;;5071597;28;20274;-76
2021/05/05 02:32:00;;;;;;;9.97;2.40;;;4.00;99.90;;;;;;5071371;28;20646;-76
2021/05/05 02:34:27;;;;;;;8.67;2.73;;;4.00;99.90;;;;;;5071273;28;20289;-75
2021/05/05 02:36:53;;;;;;;9.70;2.80;;;4.00;99.90;;;;;;5071489;28;20310;-76
2021/05/05 02:39:21;;;;;;;7.70;2.37;;;3.90;99.90;;;;;;5071790;28;20314;-75
2021/05/05 02:41:48;;;;;;;9.27;2.27;;;3.90;99.90;;;;;;5070675;28;20217;-76
2021/05/05 02:44:15;;;;;;;8.93;2.33;;;3.90;99.90;;;;;;5071585;28;20302;-76
2021/05/05 02:46:42;;;;;;;11.77;2.73;;;3.90;99.90;;;;;;5071082;28;20230;-76
2021/05/05 02:49:09;;;;;;;10.53;2.53;;;3.90;99.90;;;;;;5070408;28;20278;-75
2021/05/05 02:51:36;;;;;;;10.33;2.60;;;3.80;99.90;;;;;;5071509;28;20246;-76
2021/05/05 02:54:02;;;;;;;8.50;2.23;;;3.80;99.90;;;;;;5071219;28;20245;-76
2021/05/05 02:56:29;;;;;;;10.77;2.27;;;3.80;99.90;;;;;;5071151;28;20608;-76
2021/05/05 02:58:56;;;;;;;9.30;2.20;;;3.80;99.90;;;;;;5087336;28;20751;-75
2021/05/05 03:01:22;;;;;;;7.73;2.40;;;3.80;99.90;;;;;;5080836;28;20234;-74
2021/05/05 03:03:49;;;;;;;7.43;2.17;;;3.70;99.90;;;;;;5070845;28;20294;-75
2021/05/05 03:06:16;;;;;;;10.27;2.93;;;3.70;99.90;;;;;;5071581;28;20226;-74
2021/05/05 03:08:43;;;;;;;11.23;3.27;;;3.70;99.90;;;;;;5071221;28;20230;-74
2021/05/05 03:11:09;;;;;;;8.80;2.53;;;3.70;99.90;;;;;;5070678;28;20230;-76
2021/05/05 03:13:36;;;;;;;9.67;2.40;;;3.70;99.90;;;;;;5071074;28;20222;-76
2021/05/05 03:16:04;;;;;;;7.17;2.40;;;3.60;99.90;;;;;;5070590;28;20260;-76
2021/05/05 03:18:30;;;;;;;9.53;2.83;;;3.60;99.90;;;;;;5070709;28;20314;-76
2021/05/05 03:20:58;;;;;;;12.37;2.50;;;3.70;99.90;;;;;;5075358;28;20296;-76
2021/05/05 03:23:26;;;;;;;12.97;2.90;;;3.70;99.90;;;;;;5074771;28;20214;-76
2021/05/05 03:25:52;;;;;;;10.10;2.40;;;3.80;99.90;;;;;;5075176;28;20227;-76
2021/05/05 03:28:19;;;;;;;8.57;3.17;;;3.80;99.90;;;;;;5074761;28;20237;-76
2021/05/05 03:30:45;;;;;;;9.03;2.20;;;3.90;99.90;;;;;;5074716;28;20209;-77
2021/05/05 03:33:11;;;;;;;6.30;1.93;;;3.90;99.90;;;;;;5074502;28;20234;-75
2021/05/05 03:35:38;;;;;;;7.67;2.43;;;4.10;99.90;;;;;;5075050;28;20195;-76
2021/05/05 03:38:04;;;;;;;13.23;2.80;;;4.20;99.90;;;;;;5074448;28;20310;-76
2021/05/05 03:40:32;;;;;;;12.17;3.27;;;4.30;99.90;;;;;;5072417;28;20203;-76
2021/05/05 03:42:58;;;;;;;14.33;3.23;;;4.50;99.90;;;;;;5073366;28;20206;-76
2021/05/05 03:45:25;;;;;;;9.70;2.87;;;4.60;99.90;;;;;;5073251;28;20310;-76
2021/05/05 03:47:51;;;;;;;7.53;2.33;;;4.50;99.90;;;;;;5073289;28;20629;-76
2021/05/05 03:50:18;;;;;;;6.83;2.40;;;4.40;99.90;;;;;;5074153;28;20219;-76
2021/05/05 03:52:44;;;;;;;10.57;3.10;;;4.40;99.90;;;;;;5074390;28;20297;-76
2021/05/05 03:55:12;;;;;;;13.10;3.40;;;4.40;99.90;;;;;;5074481;28;20812;-77
2021/05/05 03:57:39;;;;;;;8.57;2.40;;;4.60;99.90;;;;;;5073304;28;20318;-76
2021/05/05 04:00:07;;;;;;;10.33;2.53;;;4.70;99.90;;;;;;5062259;28;20230;-76
2021/05/05 04:02:34;;;;;;;10.30;2.90;;;4.60;99.90;;;;;;5073523;28;20254;-76
2021/05/05 04:05:02;;;;;;;11.53;3.20;;;4.50;99.90;;;;;;5074047;28;20278;-76
2021/05/05 04:07:28;;;;;;;9.37;3.30;;;4.50;99.90;;;;;;5074345;28;20200;-76
2021/05/05 04:09:56;;;;;;;9.33;2.70;;;4.60;99.90;;;;;;5073757;28;20249;-75
2021/05/05 04:12:23;;;;;;;9.23;2.90;;;4.60;99.90;;;;;;5074060;28;20241;-76
2021/05/05 04:14:50;;;;;;;8.53;2.30;;;4.70;99.90;;;;;;5074016;28;20298;-76
2021/05/05 04:17:17;;;;;;;9.30;2.43;;;4.70;99.90;;;;;;5074153;28;20647;-75
2021/05/05 04:19:43;;;;;;;13.60;2.37;;;4.70;99.90;;;;;;5073979;28;20261;-75
2021/05/05 04:22:10;;;;;;;11.80;3.10;;;4.60;99.90;;;;;;5073907;28;20202;-75
2021/05/05 04:24:36;;;;;;;9.53;2.40;;;4.70;99.90;;;;;;5073648;28;20200;-75
2021/05/05 04:27:03;;;;;;;11.60;3.00;;;4.70;99.90;;;;;;5073462;28;20293;-76
2021/05/05 04:29:29;;;;;;;8.67;2.50;;;4.70;99.90;;;;;;5073776;28;20289;-76
2021/05/05 04:31:58;;;;;;;8.73;2.70;;;4.60;99.90;;;;;;5073561;28;20621;-76
2021/05/05 04:34:26;;;;;;;7.57;2.23;;;4.50;99.90;;;;;;5073120;28;20215;-76
2021/05/05 04:36:54;;;;;;;10.07;2.60;;;4.50;99.90;;;;;;5053598;28;20273;-75
2021/05/05 04:39:20;;;;;;;9.03;2.67;;;4.50;99.90;;;;;;5066871;28;20272;-76
2021/05/05 04:41:46;;;;;;;10.40;2.20;;;4.40;99.90;;;;;;5076770;28;20195;-76
2021/05/05 04:44:13;;;;;;;6.00;2.30;;;4.50;99.90;;;;;;5093911;28;20297;-76
2021/05/05 04:46:40;;;;;;;9.27;2.20;;;4.60;99.90;;;;;;5093566;28;20229;-76
2021/05/05 04:49:07;;;;;;;8.37;2.37;;;4.70;99.90;;;;;;5078722;28;20282;-76
2021/05/05 04:51:34;;;;;;;8.60;2.27;;;4.80;99.90;;;;;;5073522;28;20284;-76
2021/05/05 04:54:00;;;;;;;7.67;2.27;;;4.90;99.90;;;;;;5073376;28;20227;-75
2021/05/05 04:56:26;;;;;;;6.23;2.00;;;4.90;99.90;;;;;;5073419;28;20200;-76
2021/05/05 04:58:53;;;;;;;9.73;1.90;;;5.00;99.90;;;;;;5073016;28;20336;-74
2021/05/05 05:01:19;;;;;;;10.33;2.23;;;5.10;99.90;;;;;;5080898;28;20290;-74
2021/05/05 05:03:45;;;;;;;9.87;2.10;;;5.10;99.90;;;;;;5072874;28;20235;-75
2021/05/05 05:06:13;;;;;;;10.43;2.50;;;5.10;99.90;;;;;;5072766;28;20247;-75
2021/05/05 05:08:39;;;;;;;6.57;2.10;;;5.20;99.90;;;;;;5074161;28;20282;-74
2021/05/05 05:11:06;;;;;;;6.67;2.20;;;5.20;99.90;;;;;;5072793;28;20230;-75
2021/05/05 05:13:32;;;;;;;8.50;1.90;;;5.20;99.90;;;;;;5072592;28;20306;-75
2021/05/05 05:15:59;;;;;;;6.90;2.23;;;5.30;99.90;;;;;;5073378;28;20633;-76
2021/05/05 05:18:25;;;;;;;8.03;1.93;;;5.40;99.90;;;;;;5072579;28;20590;-75
2021/05/05 05:20:52;;;;;;;8.57;2.13;;;5.50;99.90;;;;;;5072685;28;20213;-76
2021/05/05 05:23:19;;;;;;;9.77;2.40;;;5.50;99.90;;;;;;5072003;28;20212;-74
2021/05/05 05:25:45;;;;;;;6.93;1.93;;;5.60;99.90;;;;;;5072223;28;20245;-76
2021/05/05 05:28:12;;;;;;;7.70;2.10;;;5.60;99.90;;;;;;5072588;28;20224;-74
2021/05/05 05:30:38;;;;;;;8.53;1.87;;;5.60;99.90;;;;;;5071480;28;20236;-76
2021/05/05 05:33:05;;;;;;;6.07;2.13;;;5.60;99.90;;;;;;5072936;28;20288;-76
2021/05/05 05:35:31;;;;;;;6.23;2.30;;;5.60;99.90;;;;;;5072202;28;20318;-77
2021/05/05 05:37:58;;;;;;;8.97;2.37;;;5.60;99.90;;;;;;5072465;28;20324;-74
2021/05/05 05:40:25;;;;;;;9.40;2.50;;;5.60;99.90;;;;;;5072197;28;20279;-75
2021/05/05 05:42:51;;;;;;;8.90;2.20;;;5.60;99.90;;;;;;5070963;28;20235;-75
2021/05/05 05:45:18;;;;;;;7.50;2.00;;;5.50;99.90;;;;;;5070731;28;20232;-75
2021/05/05 05:47:45;;;;;;;8.00;1.97;;;5.40;99.90;;;;;;5071373;28;20255;-74
2021/05/05 05:50:13;;;;;;;6.47;2.37;;;5.40;99.90;;;;;;5056790;28;21574;-74
2021/05/05 05:52:40;;;;;;;14.63;2.77;;;5.50;99.90;;;;;;5067263;28;20214;-74
2021/05/05 05:55:09;;;;;;;6.03;2.03;;;5.60;99.90;;;;;;5071519;28;20348;-75
2021/05/05 05:57:38;;;;;;;7.17;2.00;;;5.70;99.90;;;;;;5071255;28;20273;-75
2021/05/05 06:00:06;;;;;;;5.33;2.20;;;5.70;99.90;;;;;;5071329;28;20229;-74
2021/05/05 06:02:33;;;;;;;9.40;2.30;;;5.80;99.90;;;;;;5071140;28;20212;-74
2021/05/05 06:04:59;;;;;;;7.40;2.30;;;5.90;99.90;;;;;;5071442;28;20225;-76
2021/05/05 06:07:26;;;;;;;7.77;2.30;;;6.10;99.90;;;;;;5070571;28;20235;-74
2021/05/05 06:09:52;;;;;;;5.30;2.20;;;6.50;99.90;;;;;;5070990;28;20281;-76
2021/05/05 06:12:18;;;;;;;7.57;2.40;;;6.60;99.90;;;;;;5067024;28;20325;-76
2021/05/05 06:14:46;;;;;;;6.23;2.00;;;6.60;99.90;;;;;;5071293;28;20206;-76
2021/05/05 06:17:12;;;;;;;7.77;2.10;;;6.70;99.90;;;;;;5070975;28;20202;-77
2021/05/05 06:19:38;;;;;;;8.33;2.40;;;6.80;99.90;;;;;;5068225;28;20228;-75
2021/05/05 06:22:05;;;;;;;7.30;2.60;;;6.90;99.90;;;;;;5082394;28;20293;-75
2021/05/05 06:24:31;;;;;;;10.50;1.97;;;7.10;99.90;;;;;;5073028;28;20281;-75
2021/05/05 06:26:57;;;;;;;7.30;1.80;;;7.20;99.90;;;;;;5071129;28;20644;-76
2021/05/05 06:29:24;;;;;;;8.07;2.27;;;7.40;99.90;;;;;;5071373;28;20305;-76
2021/05/05 06:31:51;;;;;;;10.23;2.13;;;7.50;99.90;;;;;;5071197;28;20203;-75
2021/05/05 06:34:18;;;;;;;7.20;1.70;;;7.60;99.90;;;;;;5079864;28;20792;-75
2021/05/05 06:36:44;;;;;;;7.87;1.80;;;7.50;99.90;;;;;;5069768;28;20235;-75
2021/05/05 06:39:11;;;;;;;5.37;1.80;;;7.50;99.90;;;;;;5073287;28;20310;-75
2021/05/05 06:41:38;;;;;;;8.53;2.00;;;7.50;99.90;;;;;;5069578;28;20289;-75
2021/05/05 06:45:00;;;;;;;8.20;1.80;;;7.50;99.90;;;;;;5066831;28;20238;-76
2021/05/05 07:02:59;;;;;;;7.60;2.10;;;8.10;99.90;;;;;;5027109;28;20226;-75
2021/05/05 07:08:10;;;;;;;4.70;1.70;;;12.90;99.90;;;;;;3568964;22;20294;-76
2021/05/05 07:10:59;;;;;;;5.63;2.03;;;14.70;99.90;;;;;;5073521;28;20213;-74
2021/05/05 07:22:55;;;;;;;3.33;1.52;;;16.80;99.90;;;;;;4938414;28;20344;-74
2021/05/05 08:00:21;;;;;;;5.57;1.97;;;14.40;99.90;;;;;;4940423;28;20242;-75
2021/05/05 08:06:27;;;;;;;4.87;1.87;;;13.50;99.90;;;;;;4930662;29;20250;-75
2021/05/05 08:12:43;;;;;;;;;;;;;;;;;;;;;
2021/05/05 08:16:00;;;;;;;4.33;1.70;;;13.00;99.90;;;;;;4893400;29;20205;-74
2021/05/05 08:19:21;;;;;;;7.47;1.93;;;13.30;99.90;;;;;;4888646;29;20231;-75
2021/05/05 08:42:02;;;;;;;5.30;1.73;;;18.70;99.90;;;;;;4772083;30;20296;-75
2021/05/05 08:48:23;;;;;;;7.15;1.98;;;19.10;99.90;;;;;;4814171;29;20246;-75
2021/05/05 08:54:58;;;;;;;5.63;1.50;;;20.50;99.90;;;;;;4819319;29;20244;-75
2021/05/05 09:01:32;;;;;;;4.40;1.48;;;20.60;99.80;;;;;;4852630;29;20270;-75
2021/05/05 09:04:43;;;;;;;4.75;1.52;;;19.70;99.70;;;;;;4852489;29;20204;-75
2021/05/05 09:10:46;;;;;;;;;;;;;;;;;;;;;
2021/05/05 09:13:40;;;;;;;5.13;1.70;;;20.20;99.90;;;;;;4972038;22;20232;-76
2021/05/05 09:20:20;;;;;;;5.65;1.60;;;19.70;97.60;;;;;;5011614;28;20221;-75
2021/05/05 09:32:55;;;;;;;3.83;1.40;;;19.40;98.70;;;;;;5031252;28;20800;-75
2021/05/05 09:35:36;;;;;;;3.30;1.40;;;21.20;97.00;;;;;;5047899;22;20533;-76
2021/05/05 09:38:20;;;;;;;6.35;1.48;;;20.00;94.90;;;;;;5025519;28;20223;-76
2021/05/05 09:51:21;;;;;;;3.67;1.10;;;23.10;87.70;;;;;;5088622;28;20215;-76
2021/05/05 10:00:53;;;;;;;4.40;1.20;;;19.80;92.20;;;;;;5066810;28;20271;-75
2021/05/05 10:12:59;;;;;;;2.15;1.00;;;22.00;78.80;;;;;;5058585;28;20792;-74
2021/05/05 10:16:12;;;;;;;5.93;1.30;;;21.40;87.80;;;;;;5048820;28;20296;-73
2021/05/05 10:22:29;;;;;;;3.13;1.25;;;17.80;89.70;;;;;;5049796;28;20541;-74
2021/05/05 10:34:54;;;;;;;5.18;1.50;;;15.90;97.00;;;;;;5022319;28;20257;-76
2021/05/05 10:37:49;;;;;;;3.03;1.08;;;19.20;97.80;;;;;;5045186;28;20213;-76
2021/05/05 10:40:53;;;;;;;5.18;1.17;;;22.20;90.50;;;;;;5047106;28;20231;-75
2021/05/05 10:51:09;;;;;;;4.80;1.50;;;19.30;91.10;;;;;;4839730;29;20199;-76
2021/05/05 10:54:45;;;;;;;4.72;1.45;;;19.30;91.70;;;;;;4820382;29;20288;-76
2021/05/05 11:26:30;;;;;;;2.85;1.20;;;21.30;93.90;;;;;;5087386;23;20260;-73
2021/05/05 11:28:58;;;;;;;3.67;1.52;;;21.90;91.00;;;;;;5066125;28;20298;-72
2021/05/05 11:31:59;;;;;;;3.92;1.50;;;22.20;89.10;;;;;;5062443;28;20730;-73
2021/05/05 11:34:37;;;;;;;2.92;1.60;;;20.80;89.60;;;;;;5067562;28;20286;-73
2021/05/05 11:37:10;;;;;;;4.05;1.45;;;19.10;92.80;;;;;;5069296;28;20281;-75
2021/05/05 11:39:38;;;;;;;4.45;1.35;;;17.80;98.50;;;;;;5060153;28;20211;-74
2021/05/05 11:42:08;;;;;;;4.47;1.50;;;17.00;99.90;;;;;;5062643;28;20200;-74
2021/05/05 11:44:36;;;;;;;2.67;1.35;;;16.60;99.90;;;;;;5071032;28;20760;-73
2021/05/05 11:47:04;;;;;;;5.32;1.52;;;16.50;99.90;;;;;;5069347;28;20226;-74
2021/05/05 11:49:33;;;;;;;4.30;1.23;;;15.70;99.90;;;;;;5062617;28;20212;-73
2021/05/05 11:51:59;;;;;;;5.70;1.43;;;15.20;99.90;;;;;;5069162;28;20207;-73
2021/05/05 11:54:32;;;;;;;3.57;1.03;;;15.50;99.90;;;;;;5066385;28;20926;-74
2021/05/05 11:57:06;;;;;;;3.23;1.20;;;15.50;99.90;;;;;;5069099;28;20282;-73
2021/05/05 11:59:32;;;;;;;3.43;0.97;;;15.30;99.90;;;;;;5065180;28;20225;-73
2021/05/05 12:02:05;;;;;;;3.27;1.17;;;15.20;99.90;;;;;;5073002;28;20235;-74
2021/05/05 12:04:37;;;;;;;6.10;1.30;;;15.80;99.90;;;;;;5060740;28;20206;-74
2021/05/05 12:07:06;;;;;;;5.03;1.17;;;17.50;99.90;;;;;;5071688;28;20206;-74
2021/05/05 12:09:35;;;;;;;3.47;1.30;;;19.00;98.80;;;;;;5065123;28;20214;-74
2021/05/05 12:12:22;;;;;;;3.17;1.10;;;18.30;97.20;;;;;;5064194;28;20235;-73
2021/05/05 12:14:50;;;;;;;2.27;1.07;;;18.20;96.70;;;;;;5071460;28;20294;-73
2021/05/05 12:17:24;;;;;;;3.30;0.93;;;17.90;96.80;;;;;;5069693;28;20662;-73
2021/05/05 12:20:03;;;;;;;3.50;1.10;;;17.40;95.80;;;;;;5070539;28;20231;-74
2021/05/05 12:22:31;;;;;;;1.83;0.70;;;17.30;96.00;;;;;;5068317;28;20218;-74
2021/05/05 12:25:08;;;;;;;1.73;0.90;;;17.40;94.20;;;;;;5068493;28;20614;-73
2021/05/05 12:27:37;;;;;;;2.67;0.80;;;17.90;92.70;;;;;;5083120;28;20261;-73
2021/05/05 12:30:06;;;;;;;2.30;0.70;;;18.90;87.70;;;;;;5087968;28;20195;-73
2021/05/05 12:32:45;;;;;;;2.35;0.75;;;19.30;87.70;;;;;;5091166;28;20234;-74
2021/05/05 12:35:19;;;;;;;3.10;0.80;;;19.40;85.80;;;;;;5090672;28;20194;-74
2021/05/05 12:37:45;;;;;;;1.30;0.60;;;19.70;84.90;;;;;;5089573;28;20230;-74
2021/05/05 12:40:13;;;;;;;2.95;1.00;;;19.70;84.20;;;;;;5072027;28;20242;-74
2021/05/05 12:42:41;;;;;;;4.07;0.95;;;19.40;88.70;;;;;;5080256;28;20323;-74
2021/05/05 12:45:10;;;;;;;3.35;1.10;;;19.40;83.50;;;;;;5082627;28;20206;-74
2021/05/05 12:47:37;;;;;;;3.08;0.98;;;19.80;87.30;;;;;;5092654;28;20665;-74
2021/05/05 12:50:05;;;;;;;3.03;0.80;;;18.80;86.30;;;;;;5087743;28;20570;-74
2021/05/05 12:52:32;;;;;;;2.55;1.10;;;17.60;89.30;;;;;;5089952;28;20290;-74
2021/05/05 12:55:00;;;;;;;1.85;1.02;;;17.00;92.10;;;;;;5092515;28;20207;-74
2021/05/05 12:57:27;;;;;;;2.60;1.00;;;16.50;92.30;;;;;;5091939;28;20194;-73
2021/05/05 12:59:55;;;;;;;5.33;0.97;;;15.90;92.40;;;;;;5086210;28;20218;-74
2021/05/05 13:02:24;;;;;;;3.40;1.20;;;16.00;94.40;;;;;;5090300;28;20344;-73
2021/05/05 13:04:52;;;;;;;3.60;1.00;;;16.60;94.00;;;;;;5069942;28;20207;-73
2021/05/05 13:07:29;;;;;;;3.27;1.00;;;18.20;93.90;;;;;;5091733;28;20238;-74
2021/05/05 13:10:04;;;;;;;3.33;1.13;;;17.80;91.70;;;;;;5093405;28;20244;-73
2021/05/05 13:12:36;;;;;;;5.53;1.00;;;17.20;91.80;;;;;;5090358;28;20198;-74
2021/05/05 13:15:25;;;;;;;2.37;1.07;;;17.40;93.80;;;;;;5089136;28;20202;-73
2021/05/05 13:18:18;;;;;;;1.83;1.00;;;17.40;92.90;;;;;;5092262;28;20202;-73
2021/05/05 13:20:58;;;;;;;5.03;1.20;;;17.20;92.80;;;;;;5085900;28;20218;-73
2021/05/05 13:31:52;;;;;;;3.30;1.30;;;17.20;94.50;;;;;;5081952;28;20557;-74
2021/05/05 13:34:19;;;;;;;3.17;1.10;;;17.50;96.20;;;;;;5091362;28;20252;-74
2021/05/05 13:36:56;;;;;;;3.27;1.13;;;17.90;96.60;;;;;;5086247;28;20206;-74
2021/05/05 13:39:26;;;;;;;4.57;1.30;;;18.20;95.20;;;;;;5082919;28;20244;-74
2021/05/05 13:41:56;;;;;;;3.70;1.40;;;18.20;94.70;;;;;;5084789;28;20664;-74
2021/05/05 13:44:39;;;;;;;4.05;1.30;;;18.60;93.30;;;;;;5092512;28;20206;-74
2021/05/05 13:47:18;;;;;;;5.97;1.53;;;18.00;94.00;;;;;;5086135;28;20236;-74
2021/05/05 13:49:47;;;;;;;2.73;1.10;;;17.90;94.20;;;;;;5091657;28;20728;-74
2021/05/05 13:52:14;;;;;;;2.23;1.20;;;18.30;94.90;;;;;;5088095;28;20198;-74
2021/05/05 13:54:40;;;;;;;4.43;1.40;;;18.30;94.80;;;;;;5089837;28;20206;-74
2021/05/05 13:57:08;;;;;;;3.50;1.38;;;18.40;94.80;;;;;;5092272;28;20210;-74
2021/05/05 13:59:37;;;;;;;3.60;1.48;;;18.60;92.80;;;;;;5092129;28;20297;-75
2021/05/05 14:02:04;;;;;;;2.47;1.10;;;18.60;93.80;;;;;;5091489;28;20198;-74
2021/05/05 14:04:32;;;;;;;3.03;1.10;;;18.30;94.40;;;;;;5086624;28;20285;-74
2021/05/05 14:06:58;;;;;;;3.05;1.10;;;18.40;93.60;;;;;;5090663;28;20207;-74
2021/05/05 14:09:25;;;;;;;2.92;1.42;;;18.40;93.90;;;;;;5092036;28;20190;-74
2021/05/05 14:11:52;;;;;;;3.78;1.65;;;17.80;95.00;;;;;;5090428;28;20201;-74
2021/05/05 14:14:19;;;;;;;3.70;1.30;;;17.60;93.60;;;;;;5090513;28;20376;-74
2021/05/05 14:16:45;;;;;;;3.57;1.47;;;17.20;94.70;;;;;;5072898;28;20547;-74
2021/05/05 14:19:12;;;;;;;3.97;1.50;;;17.40;95.30;;;;;;5085047;28;20318;-74
2021/05/05 14:21:39;;;;;;;3.23;1.30;;;17.70;94.80;;;;;;5086550;28;20305;-74
2021/05/05 14:24:07;;;;;;;6.57;1.87;;;17.50;94.90;;;;;;5091062;28;20289;-74
2021/05/05 14:26:33;;;;;;;5.30;1.50;;;17.30;94.60;;;;;;5090934;28;20305;-74
2021/05/05 14:29:00;;;;;;;2.90;1.87;;;17.00;95.50;;;;;;5090403;28;20198;-74
2021/05/05 14:31:28;;;;;;;2.57;1.40;;;16.90;96.70;;;;;;5086459;28;20353;-74
2021/05/05 14:33:54;;;;;;;4.57;1.47;;;16.80;97.20;;;;;;5088852;28;20296;-74
2021/05/05 14:36:21;;;;;;;4.70;1.17;;;16.90;95.60;;;;;;5090486;28;20222;-74
2021/05/05 14:38:49;;;;;;;4.47;1.33;;;17.10;96.30;;;;;;5090699;28;20293;-74
2021/05/05 14:41:20;;;;;;;3.17;1.33;;;17.40;96.80;;;;;;5089754;28;20236;-74
2021/05/05 14:43:57;;;;;;;5.60;1.30;;;17.90;95.40;;;;;;5090024;28;20210;-73
2021/05/05 14:49:09;;;;;;;3.90;1.80;;;17.30;95.30;;;;;;5087546;28;20703;-74
2021/05/05 14:51:36;;;;;;;6.13;2.40;;;17.00;94.80;;;;;;5088259;28;20198;-74
2021/05/05 14:54:05;;;;;;;4.63;1.53;;;17.40;95.60;;;;;;5077494;28;20309;-74
2021/05/05 14:56:31;;;;;;;4.07;1.63;;;17.40;95.40;;;;;;5084986;28;20221;-74
2021/05/05 14:58:59;;;;;;;4.90;1.57;;;17.40;95.20;;;;;;5087502;28;20416;-74
2021/05/05 15:01:25;;;;;;;4.97;1.37;;;17.80;96.00;;;;;;5087670;28;20650;-74
2021/05/05 15:03:53;;;;;;;2.83;1.40;;;17.40;93.60;;;;;;5088003;28;20220;-74
2021/05/05 15:06:25;;;;;;;3.77;1.43;;;16.70;95.70;;;;;;5085580;28;20317;-74
2021/05/05 15:08:58;;;;;;;5.20;2.13;;;16.80;96.10;;;;;;5090387;28;20218;-74
2021/05/05 15:14:10;;;;;;;4.23;1.40;;;16.50;97.50;;;;;;5087396;28;20549;-74
2021/05/05 15:17:06;;;;;;;4.03;1.60;;;16.60;97.30;;;;;;5087319;28;20209;-74
2021/05/05 15:36:12;;;;;;;6.43;1.97;;;15.30;98.10;;;;;;5035011;28;20234;-74
2021/05/05 15:38:43;;;;;;;4.50;1.43;;;15.10;99.90;;;;;;5030987;28;20251;-74
2021/05/05 15:41:15;;;;;;;3.73;1.50;;;14.80;99.90;;;;;;5039025;28;20203;-75
2021/05/05 15:44:11;;;;;;;4.47;1.47;;;14.80;99.90;;;;;;5032583;28;20266;-74
2021/05/05 15:46:51;;;;;;;4.37;1.60;;;14.80;99.90;;;;;;5025930;28;20200;-74
2021/05/05 15:49:18;;;;;;;4.37;1.40;;;14.80;99.90;;;;;;5027081;28;20219;-75
2021/05/05 15:51:44;;;;;;;4.10;1.20;;;14.90;99.90;;;;;;5020039;28;20287;-74
2021/05/05 15:54:11;;;;;;;3.17;1.30;;;14.90;99.90;;;;;;5030259;28;20295;-74
2021/05/05 15:56:37;;;;;;;5.47;1.50;;;15.20;99.90;;;;;;5030477;28;20717;-74
2021/05/05 15:59:08;;;;;;;4.90;1.47;;;15.80;99.90;;;;;;5030363;28;20245;-74
2021/05/05 16:01:42;;;;;;;3.40;1.53;;;15.60;97.90;;;;;;5035669;28;20615;-74
2021/05/05 16:12:40;;;;;;;5.37;1.40;;;14.90;99.90;;;;;;5090807;28;20191;-74
2021/05/05 16:15:23;;;;;;;3.27;1.43;;;14.60;99.90;;;;;;5091848;28;20254;-74
2021/05/05 16:17:50;;;;;;;4.03;1.53;;;14.20;99.90;;;;;;5091233;28;20249;-74
2021/05/05 16:20:19;;;;;;;5.37;1.40;;;14.00;99.90;;;;;;5089698;28;20700;-74
2021/05/05 16:22:51;;;;;;;3.67;1.70;;;14.00;99.90;;;;;;5091375;28;20198;-74
2021/05/05 16:25:24;;;;;;;6.40;1.70;;;13.80;99.90;;;;;;5089387;28;20197;-74
2021/05/05 16:47:27;;;;;;;7.93;1.67;;;13.10;99.90;;;;;;4968435;28;20280;-73
2021/05/05 16:52:53;;;;;;;6.40;1.90;;;12.80;99.90;;;;;;4962688;28;20654;-73
2021/05/05 16:55:23;;;;;;;5.50;1.60;;;12.60;99.90;;;;;;4967538;28;20202;-73
2021/05/05 16:57:56;;;;;;;5.23;2.03;;;12.50;99.90;;;;;;4970902;28;20552;-73
2021/05/05 17:08:57;;;;;;;5.87;2.30;;;12.20;99.90;;;;;;4883126;29;20303;-73
2021/05/05 17:11:24;;;;;;;6.97;2.60;;;12.00;99.90;;;;;;4895989;29;20204;-73
2021/05/05 17:13:51;;;;;;;7.47;2.10;;;11.70;99.90;;;;;;4895406;29;20201;-72
2021/05/05 17:16:18;;;;;;;7.20;2.53;;;11.40;99.90;;;;;;4893002;29;20352;-73
2021/05/05 17:18:49;;;;;;;13.43;4.63;;;11.10;99.90;;;;;;4892774;29;20303;-73
2021/05/05 17:21:18;;;;;;;18.00;5.00;;;10.90;99.90;;;;;;4900750;29;20738;-72
2021/05/05 17:23:48;;;;;;;9.83;3.60;;;10.70;99.90;;;;;;4934151;28;20207;-73
2021/05/05 17:26:20;;;;;;;9.30;4.77;;;10.60;99.90;;;;;;4983576;28;20273;-73
2021/05/05 17:28:59;;;;;;;13.00;3.83;;;10.50;99.90;;;;;;4982944;28;20225;-73
2021/05/05 18:10:05;;;;;;;6.53;2.50;;;10.80;99.90;;;;;;5082903;28;20194;-74
2021/05/05 18:15:24;;;;;;;7.30;2.53;;;10.80;99.90;;;;;;5023263;28;20267;-74